Time;durP1;ratioP1;P1;durP2;ratioP2;P2;SDS_P1;SDS_P2;PMS_P1;PMS_P2;Temp;Humidity;BMP_temperature;BMP_pressure;BME280_temperature;BME280_humidity;BME280_pressure;Samples;Min_cycle;Max_cycle;Signal;HPM_P1;HPM_P2
2023/06/23 00:00:28;;;;;;;4.20;1.48;;;;;;;;;;5080932;28;20058;-70
2023/06/23 00:02:54;;;;;;;2.53;1.40;;;;;;;;;;5080987;28;20329;-71
2023/06/23 00:05:19;;;;;;;3.08;1.95;;;;;;;;;;5080578;28;20083;-74
2023/06/23 00:07:45;;;;;;;2.17;1.38;;;;;;;;;;5080422;28;20229;-73
2023/06/23 00:10:10;;;;;;;3.70;1.33;;;;;;;;;;5080074;28;20024;-69
2023/06/23 00:12:41;;;;;;;2.65;1.27;;;;;;;;;;5080882;28;20032;-70
2023/06/23 00:15:14;;;;;;;3.83;1.40;;;;;;;;;;5080623;28;20376;-70
2023/06/23 00:17:44;;;;;;;2.55;1.52;;;;;;;;;;5080446;28;20051;-70
2023/06/23 00:20:12;;;;;;;3.97;1.77;;;;;;;;;;5080579;28;20032;-70
2023/06/23 00:22:38;;;;;;;3.13;1.67;;;;;;;;;;5080256;28;20340;-72
2023/06/23 00:25:04;;;;;;;2.35;1.42;;;;;;;;;;5080665;28;20031;-69
2023/06/23 00:27:29;;;;;;;2.65;1.48;;;;;;;;;;5080567;28;20541;-70
2023/06/23 00:29:55;;;;;;;2.65;1.58;;;;;;;;;;5080573;28;20025;-69
2023/06/23 00:32:20;;;;;;;3.17;1.75;;;;;;;;;;5080521;28;20047;-70
2023/06/23 00:34:45;;;;;;;4.68;1.42;;;;;;;;;;5080578;28;20082;-72
2023/06/23 00:37:11;;;;;;;2.30;1.55;;;;;;;;;;5080340;28;20228;-69
2023/06/23 00:39:37;;;;;;;2.85;1.52;;;;;;;;;;5080433;28;20232;-69
2023/06/23 00:42:03;;;;;;;1.92;1.33;;;;;;;;;;5080652;28;20036;-70
2023/06/23 00:44:29;;;;;;;2.92;1.60;;;;;;;;;;5080402;28;20020;-69
2023/06/23 00:46:55;;;;;;;3.08;1.58;;;;;;;;;;5080562;28;20059;-70
2023/06/23 00:49:20;;;;;;;3.03;1.50;;;;;;;;;;5080476;28;20706;-71
2023/06/23 00:51:46;;;;;;;3.08;1.50;;;;;;;;;;5080146;28;20028;-76
2023/06/23 00:54:12;;;;;;;2.85;1.42;;;;;;;;;;5080281;28;20050;-75
2023/06/23 00:56:37;;;;;;;3.45;1.30;;;;;;;;;;5079982;28;20040;-74
2023/06/23 00:59:03;;;;;;;5.97;1.42;;;;;;;;;;5080258;28;20084;-69
2023/06/23 01:01:31;;;;;;;3.33;1.80;;;;;;;;;;5079832;28;20178;-70
2023/06/23 01:03:59;;;;;;;2.72;1.45;;;;;;;;;;5080327;28;20025;-69
2023/06/23 01:06:29;;;;;;;5.45;2.00;;;;;;;;;;5080137;28;20091;-71
2023/06/23 01:09:00;;;;;;;4.65;1.73;;;;;;;;;;5079803;28;20037;-70
2023/06/23 01:11:33;;;;;;;4.75;1.48;;;;;;;;;;5080042;28;20060;-70
2023/06/23 01:14:04;;;;;;;2.72;1.58;;;;;;;;;;5079912;28;20037;-70
2023/06/23 01:16:44;;;;;;;2.58;1.63;;;;;;;;;;5080010;28;20025;-72
2023/06/23 01:19:41;;;;;;;2.78;1.38;;;;;;;;;;5080125;28;20095;-70
2023/06/23 01:22:26;;;;;;;3.05;1.67;;;;;;;;;;5079621;28;20083;-69
2023/06/23 01:25:31;;;;;;;2.03;1.27;;;;;;;;;;5079925;28;20024;-69
2023/06/23 01:28:21;;;;;;;3.60;1.67;;;;;;;;;;5079799;28;20074;-75
2023/06/23 01:30:53;;;;;;;2.50;1.40;;;;;;;;;;5080762;28;20113;-70
2023/06/23 01:33:23;;;;;;;2.72;1.45;;;;;;;;;;5082839;28;20060;-69
2023/06/23 01:36:05;;;;;;;4.57;1.70;;;;;;;;;;5083374;28;20043;-70
2023/06/23 01:38:36;;;;;;;1.92;1.23;;;;;;;;;;5083027;28;20058;-71
2023/06/23 01:41:08;;;;;;;3.45;1.63;;;;;;;;;;5081348;28;20040;-70
2023/06/23 01:43:35;;;;;;;3.60;1.90;;;;;;;;;;5083162;28;20089;-70
2023/06/23 01:46:15;;;;;;;2.65;1.35;;;;;;;;;;5082939;28;20028;-73
2023/06/23 01:48:46;;;;;;;2.20;1.20;;;;;;;;;;5083014;28;20390;-70
2023/06/23 01:51:11;;;;;;;;;;;;;;;;;;5083736;28;20028;-71
2023/06/23 01:53:38;;;;;;;2.40;1.48;;;;;;;;;;5082995;28;20135;-69
2023/06/23 01:56:06;;;;;;;4.13;1.83;;;;;;;;;;5083017;28;20031;-69
2023/06/23 01:58:37;;;;;;;1.92;1.23;;;;;;;;;;5083211;28;20084;-74
2023/06/23 02:01:02;;;;;;;;;;;;;;;;;;5083343;28;20088;-72
2023/06/23 02:03:29;;;;;;;2.13;1.27;;;;;;;;;;5083119;28;19931;-71
2023/06/23 02:05:56;;;;;;;2.13;1.27;;;;;;;;;;5082845;28;20027;-70
2023/06/23 02:08:25;;;;;;;2.58;1.52;;;;;;;;;;5082638;28;20107;-70
2023/06/23 02:10:54;;;;;;;2.55;1.40;;;;;;;;;;5082620;28;20024;-70
2023/06/23 02:13:22;;;;;;;7.27;1.37;;;;;;;;;;5082853;28;20028;-69
2023/06/23 02:15:50;;;;;;;1.42;1.05;;;;;;;;;;5082723;28;20025;-70
2023/06/23 02:18:18;;;;;;;2.78;1.67;;;;;;;;;;5082403;28;20047;-70
2023/06/23 02:20:45;;;;;;;2.28;1.30;;;;;;;;;;5082135;28;20066;-70
2023/06/23 02:23:11;;;;;;;2.75;1.77;;;;;;;;;;5082212;28;20040;-70
2023/06/23 02:25:39;;;;;;;2.42;1.45;;;;;;;;;;5082112;28;20280;-72
2023/06/23 02:28:05;;;;;;;1.85;1.38;;;;;;;;;;5082294;28;20061;-70
2023/06/23 02:30:32;;;;;;;1.95;1.40;;;;;;;;;;5082436;28;20025;-76
2023/06/23 02:32:57;;;;;;;2.33;1.55;;;;;;;;;;5082488;28;20028;-71
2023/06/23 02:35:23;;;;;;;2.45;1.30;;;;;;;;;;5082536;28;20052;-70
2023/06/23 02:38:00;;;;;;;1.30;0.98;;;;;;;;;;5082006;28;20024;-70
2023/06/23 02:40:30;;;;;;;2.42;1.27;;;;;;;;;;5082342;28;20189;-71
2023/06/23 02:43:04;;;;;;;1.80;1.33;;;;;;;;;;5082131;28;20039;-73
2023/06/23 02:45:34;;;;;;;2.88;1.23;;;;;;;;;;5082109;28;20305;-70
2023/06/23 02:48:00;;;;;;;;;;;;;;;;;;5082196;28;20048;-72
2023/06/23 02:50:35;;;;;;;2.33;1.50;;;;;;;;;;5081597;28;19908;-71
2023/06/23 02:53:06;;;;;;;3.13;1.17;;;;;;;;;;5081077;28;20028;-69
2023/06/23 02:55:40;;;;;;;3.63;1.15;;;;;;;;;;5081953;28;20021;-72
2023/06/23 02:58:08;;;;;;;2.80;1.48;;;;;;;;;;5081618;28;20020;-71
2023/06/23 03:00:34;;;;;;;3.65;1.38;;;;;;;;;;5081954;28;20048;-70
2023/06/23 03:03:03;;;;;;;5.03;1.60;;;;;;;;;;5081728;28;20025;-70
2023/06/23 03:05:28;;;;;;;2.30;1.40;;;;;;;;;;5081867;28;20032;-70
2023/06/23 03:07:54;;;;;;;2.60;1.60;;;;;;;;;;5081537;28;20046;-70
2023/06/23 03:10:19;;;;;;;2.65;1.52;;;;;;;;;;5081800;28;20084;-71
2023/06/23 03:12:47;;;;;;;5.68;1.70;;;;;;;;;;5081566;28;20032;-70
2023/06/23 03:15:13;;;;;;;2.17;1.33;;;;;;;;;;5081507;28;20328;-73
2023/06/23 03:17:40;;;;;;;5.38;1.67;;;;;;;;;;5081158;28;20461;-69
2023/06/23 03:20:05;;;;;;;3.30;1.60;;;;;;;;;;5081450;28;20120;-71
2023/06/23 03:22:38;;;;;;;3.25;1.50;;;;;;;;;;5080983;28;20056;-70
2023/06/23 03:25:11;;;;;;;3.05;1.77;;;;;;;;;;5080906;28;20082;-72
2023/06/23 03:27:39;;;;;;;2.15;1.45;;;;;;;;;;5080215;28;20021;-69
2023/06/23 03:30:19;;;;;;;1.63;1.10;;;;;;;;;;5081132;28;20235;-73
2023/06/23 03:32:49;;;;;;;4.72;1.67;;;;;;;;;;5081139;28;20472;-70
2023/06/23 03:35:20;;;;;;;3.72;1.70;;;;;;;;;;5081247;28;20206;-69
2023/06/23 03:37:49;;;;;;;2.78;1.70;;;;;;;;;;5080854;28;20035;-70
2023/06/23 03:40:19;;;;;;;3.85;1.58;;;;;;;;;;5081450;28;20020;-73
2023/06/23 03:42:47;;;;;;;3.13;1.85;;;;;;;;;;5081044;28;20068;-70
2023/06/23 03:45:15;;;;;;;3.33;1.70;;;;;;;;;;5081194;28;20320;-70
2023/06/23 03:47:42;;;;;;;2.15;1.52;;;;;;;;;;5079465;28;20037;-70
2023/06/23 03:50:16;;;;;;;2.85;1.20;;;;;;;;;;5080525;28;20059;-71
2023/06/23 03:52:43;;;;;;;4.97;1.40;;;;;;;;;;5079974;28;20084;-72
2023/06/23 03:55:11;;;;;;;3.28;1.65;;;;;;;;;;5080154;28;20104;-70
2023/06/23 03:57:38;;;;;;;2.72;1.45;;;;;;;;;;5079699;28;20028;-75
2023/06/23 04:00:04;;;;;;;3.67;1.65;;;;;;;;;;5080708;28;20388;-75
2023/06/23 04:02:32;;;;;;;2.83;1.58;;;;;;;;;;5080758;28;20435;-76
2023/06/23 04:05:00;;;;;;;2.88;1.33;;;;;;;;;;5080844;28;20024;-72
2023/06/23 04:07:28;;;;;;;5.57;1.77;;;;;;;;;;5080507;28;20028;-75
2023/06/23 04:09:55;;;;;;;2.25;1.48;;;;;;;;;;5080840;28;20033;-76
2023/06/23 04:12:22;;;;;;;2.92;1.40;;;;;;;;;;5080424;28;20291;-74
2023/06/23 04:14:51;;;;;;;5.05;2.75;;;;;;;;;;5080581;28;20033;-70
2023/06/23 04:17:21;;;;;;;3.03;1.73;;;;;;;;;;5080599;28;20315;-69
2023/06/23 04:19:49;;;;;;;3.22;1.48;;;;;;;;;;5080254;28;20040;-70
2023/06/23 04:22:18;;;;;;;3.50;1.45;;;;;;;;;;5079781;28;20055;-69
2023/06/23 04:24:45;;;;;;;3.67;1.70;;;;;;;;;;5080337;28;20024;-72
2023/06/23 04:27:13;;;;;;;2.60;1.70;;;;;;;;;;5079724;28;20099;-69
2023/06/23 04:29:41;;;;;;;2.60;1.55;;;;;;;;;;5078805;28;20031;-69
2023/06/23 04:32:09;;;;;;;3.72;1.40;;;;;;;;;;5080284;28;20032;-71
2023/06/23 04:34:35;;;;;;;2.90;1.75;;;;;;;;;;5080611;28;20099;-69
2023/06/23 04:37:13;;;;;;;2.50;1.58;;;;;;;;;;5080397;28;20020;-72
2023/06/23 04:40:06;;;;;;;2.22;1.23;;;;;;;;;;5080505;28;20028;-70
2023/06/23 04:42:46;;;;;;;1.95;1.42;;;;;;;;;;5080377;28;20349;-69
2023/06/23 04:45:15;;;;;;;2.65;1.23;;;;;;;;;;5080261;28;20051;-72
2023/06/23 04:47:43;;;;;;;3.20;1.60;;;;;;;;;;5080050;28;20035;-70
2023/06/23 04:50:15;;;;;;;3.45;1.70;;;;;;;;;;5079783;28;20088;-71
2023/06/23 04:52:46;;;;;;;3.22;1.98;;;;;;;;;;5079867;28;20037;-69
2023/06/23 04:55:17;;;;;;;5.60;1.58;;;;;;;;;;5080478;28;20035;-71
2023/06/23 04:57:45;;;;;;;5.65;2.00;;;;;;;;;;5079898;28;20094;-69
2023/06/23 05:00:16;;;;;;;5.07;1.80;;;;;;;;;;5080112;28;20031;-69
2023/06/23 05:02:44;;;;;;;2.25;1.25;;;;;;;;;;5079849;28;20127;-70
2023/06/23 05:05:14;;;;;;;2.83;1.55;;;;;;;;;;5081101;28;20040;-70
2023/06/23 05:07:41;;;;;;;3.42;1.52;;;;;;;;;;5083423;28;20328;-69
2023/06/23 05:10:07;;;;;;;3.78;1.45;;;;;;;;;;5083715;28;20024;-69
2023/06/23 05:12:34;;;;;;;2.90;1.83;;;;;;;;;;5083560;28;20040;-71
2023/06/23 05:15:00;;;;;;;2.55;1.63;;;;;;;;;;5083365;28;20028;-72
2023/06/23 05:17:28;;;;;;;4.28;1.85;;;;;;;;;;5082931;28;20110;-70
2023/06/23 05:19:56;;;;;;;2.17;1.45;;;;;;;;;;5082727;28;20101;-71
2023/06/23 05:22:25;;;;;;;3.72;1.50;;;;;;;;;;5082824;28;20080;-70
2023/06/23 05:24:58;;;;;;;2.17;1.42;;;;;;;;;;5079777;28;20029;-69
2023/06/23 05:27:25;;;;;;;4.45;1.63;;;;;;;;;;5082812;28;20052;-71
2023/06/23 05:29:54;;;;;;;6.47;2.00;;;;;;;;;;5083453;28;20220;-70
2023/06/23 05:32:21;;;;;;;2.85;1.45;;;;;;;;;;5083570;28;20020;-72
2023/06/23 05:34:49;;;;;;;3.30;1.90;;;;;;;;;;5083499;28;20035;-72
2023/06/23 05:37:18;;;;;;;2.67;1.80;;;;;;;;;;5082217;28;20027;-71
2023/06/23 05:39:46;;;;;;;3.15;1.63;;;;;;;;;;5083206;28;20083;-72
2023/06/23 05:42:11;;;;;;;2.95;1.60;;;;;;;;;;5083313;28;20032;-72
2023/06/23 05:44:37;;;;;;;3.17;1.45;;;;;;;;;;5082931;28;20028;-80
2023/06/23 05:47:07;;;;;;;4.68;1.88;;;;;;;;;;5080642;28;20067;-85
2023/06/23 05:49:43;;;;;;;6.38;1.77;;;;;;;;;;5081350;28;20025;-74
2023/06/23 05:52:14;;;;;;;4.40;1.55;;;;;;;;;;5082643;28;20032;-80
2023/06/23 05:54:44;;;;;;;8.75;1.75;;;;;;;;;;5080834;28;20035;-71
2023/06/23 05:57:19;;;;;;;2.55;1.65;;;;;;;;;;5082829;28;20029;-72
2023/06/23 05:59:46;;;;;;;4.97;1.75;;;;;;;;;;5082850;28;20205;-69
2023/06/23 06:02:21;;;;;;;2.28;1.52;;;;;;;;;;5083138;28;20037;-74
2023/06/23 06:04:49;;;;;;;6.05;1.80;;;;;;;;;;5082996;28;20308;-71
2023/06/23 06:07:17;;;;;;;3.45;1.67;;;;;;;;;;5082644;28;20032;-72
2023/06/23 06:09:44;;;;;;;3.75;1.77;;;;;;;;;;5081475;28;20035;-76
2023/06/23 06:12:11;;;;;;;4.43;2.40;;;;;;;;;;5081733;28;20220;-71
2023/06/23 06:14:38;;;;;;;4.25;1.60;;;;;;;;;;5081231;28;20066;-70
2023/06/23 06:17:07;;;;;;;5.13;2.33;;;;;;;;;;5081089;28;20028;-70
2023/06/23 06:19:34;;;;;;;2.97;1.65;;;;;;;;;;5082109;28;20056;-70
2023/06/23 06:22:01;;;;;;;3.92;2.03;;;;;;;;;;5082435;28;20349;-71
2023/06/23 06:24:30;;;;;;;4.28;2.45;;;;;;;;;;5082434;28;20035;-71
2023/06/23 06:26:56;;;;;;;3.70;2.22;;;;;;;;;;5082552;28;20033;-71
2023/06/23 06:29:23;;;;;;;4.53;2.20;;;;;;;;;;5082176;28;20048;-72
2023/06/23 06:31:50;;;;;;;3.20;1.92;;;;;;;;;;5082445;28;20031;-76
2023/06/23 06:34:18;;;;;;;5.13;2.40;;;;;;;;;;5082176;28;20086;-71
2023/06/23 06:36:44;;;;;;;4.15;2.60;;;;;;;;;;5082319;28;20024;-70
2023/06/23 06:39:11;;;;;;;3.85;2.35;;;;;;;;;;5082156;28;20051;-71
2023/06/23 06:41:38;;;;;;;3.88;2.25;;;;;;;;;;5082364;28;20032;-70
2023/06/23 06:44:04;;;;;;;4.65;2.50;;;;;;;;;;5082236;28;20085;-70
2023/06/23 06:46:30;;;;;;;4.35;2.45;;;;;;;;;;5081901;28;20546;-76
2023/06/23 06:48:56;;;;;;;4.25;2.05;;;;;;;;;;5080978;28;20043;-81
2023/06/23 06:51:22;;;;;;;4.38;1.77;;;;;;;;;;5080980;28;20119;-72
2023/06/23 06:53:49;;;;;;;3.78;2.05;;;;;;;;;;5080966;28;20198;-73
2023/06/23 06:56:15;;;;;;;4.15;2.20;;;;;;;;;;5081349;28;20036;-76
2023/06/23 06:58:41;;;;;;;4.15;2.25;;;;;;;;;;5081216;28;20036;-73
2023/06/23 07:01:07;;;;;;;3.83;1.95;;;;;;;;;;5081196;28;20039;-76
2023/06/23 07:03:34;;;;;;;4.28;2.00;;;;;;;;;;5079489;28;20020;-77
2023/06/23 07:06:00;;;;;;;3.60;2.08;;;;;;;;;;5080729;28;20013;-79
2023/06/23 07:08:25;;;;;;;3.13;1.85;;;;;;;;;;5080939;28;20063;-74
2023/06/23 07:10:50;;;;;;;4.65;2.35;;;;;;;;;;5081420;28;20066;-72
2023/06/23 07:13:16;;;;;;;5.15;2.50;;;;;;;;;;5081033;28;20028;-74
2023/06/23 07:15:41;;;;;;;3.75;2.10;;;;;;;;;;5080954;28;20035;-72
2023/06/23 07:18:07;;;;;;;9.32;1.92;;;;;;;;;;5081564;28;20099;-80
2023/06/23 07:20:32;;;;;;;4.18;1.75;;;;;;;;;;5081417;28;20107;-74
2023/06/23 07:22:57;;;;;;;4.13;1.60;;;;;;;;;;5081289;28;20225;-80
2023/06/23 07:25:23;;;;;;;3.10;1.55;;;;;;;;;;5081188;28;20051;-79
2023/06/23 07:27:48;;;;;;;3.38;1.60;;;;;;;;;;5067237;28;20336;-78
2023/06/23 07:30:14;;;;;;;4.63;2.45;;;;;;;;;;5077560;28;20084;-72
2023/06/23 07:32:40;;;;;;;3.60;1.90;;;;;;;;;;5061225;28;20028;-74
2023/06/23 07:35:06;;;;;;;3.13;1.70;;;;;;;;;;5069414;28;20031;-71
2023/06/23 07:37:32;;;;;;;2.85;1.73;;;;;;;;;;5081087;28;20059;-74
2023/06/23 07:39:57;;;;;;;3.30;1.67;;;;;;;;;;5079888;28;20412;-71
2023/06/23 07:42:24;;;;;;;6.05;1.90;;;;;;;;;;5079845;28;20147;-72
2023/06/23 07:44:49;;;;;;;3.88;2.00;;;;;;;;;;5061693;28;20216;-71
2023/06/23 07:47:15;;;;;;;3.85;2.03;;;;;;;;;;5058572;28;20021;-72
2023/06/23 07:49:40;;;;;;;4.00;1.85;;;;;;;;;;5059567;28;20052;-77
2023/06/23 07:52:06;;;;;;;3.85;2.08;;;;;;;;;;5059777;28;20029;-75
2023/06/23 07:54:32;;;;;;;3.75;2.05;;;;;;;;;;5060826;28;20123;-72
2023/06/23 07:56:58;;;;;;;3.58;1.85;;;;;;;;;;5060994;28;20029;-73
2023/06/23 07:59:25;;;;;;;6.82;2.00;;;;;;;;;;5060671;28;20119;-77
2023/06/23 08:01:51;;;;;;;3.42;1.88;;;;;;;;;;5081606;28;20027;-73
2023/06/23 08:04:17;;;;;;;3.25;1.75;;;;;;;;;;5084086;28;20261;-74
2023/06/23 08:06:42;;;;;;;9.10;2.00;;;;;;;;;;5078878;28;20091;-72
2023/06/23 08:09:08;;;;;;;2.58;1.73;;;;;;;;;;5080131;28;20035;-79
2023/06/23 08:11:33;;;;;;;6.60;2.15;;;;;;;;;;5080575;28;20024;-76
2023/06/23 08:14:00;;;;;;;5.47;2.30;;;;;;;;;;5080432;28;20074;-71
2023/06/23 08:16:26;;;;;;;3.03;1.85;;;;;;;;;;5074219;28;20024;-72
2023/06/23 08:18:52;;;;;;;2.95;1.77;;;;;;;;;;5078671;28;20081;-72
2023/06/23 08:21:18;;;;;;;3.80;2.47;;;;;;;;;;5077001;28;20032;-72
2023/06/23 08:23:47;;;;;;;2.72;1.70;;;;;;;;;;5078992;28;20036;-72
2023/06/23 08:26:13;;;;;;;4.22;1.65;;;;;;;;;;5079613;28;20731;-73
2023/06/23 08:28:39;;;;;;;3.80;2.05;;;;;;;;;;5077426;28;20024;-72
2023/06/23 08:31:05;;;;;;;2.55;1.80;;;;;;;;;;5058896;28;20025;-75
2023/06/23 08:33:34;;;;;;;3.70;2.10;;;;;;;;;;5059839;28;20378;-75
2023/06/23 08:36:00;;;;;;;4.70;1.80;;;;;;;;;;5059781;28;20296;-72
2023/06/23 08:38:26;;;;;;;3.13;1.80;;;;;;;;;;5061090;28;20033;-75
2023/06/23 08:40:52;;;;;;;3.05;1.77;;;;;;;;;;5064236;28;20218;-73
2023/06/23 08:43:25;;;;;;;5.18;2.13;;;;;;;;;;5065257;28;20276;-77
2023/06/23 08:45:54;;;;;;;4.97;1.85;;;;;;;;;;5064395;28;20033;-72
2023/06/23 08:48:24;;;;;;;4.40;1.80;;;;;;;;;;5064114;28;20351;-74
2023/06/23 08:50:52;;;;;;;3.50;1.38;;;;;;;;;;5064199;28;20112;-76
2023/06/23 08:53:17;;;;;;;4.65;1.90;;;;;;;;;;5064035;28;20041;-72
2023/06/23 08:55:43;;;;;;;2.63;1.73;;;;;;;;;;5062605;28;20044;-75
2023/06/23 08:58:09;;;;;;;3.45;1.67;;;;;;;;;;5064117;28;20021;-80
2023/06/23 09:00:36;;;;;;;3.08;1.77;;;;;;;;;;5063937;28;20021;-74
2023/06/23 09:03:03;;;;;;;3.05;1.80;;;;;;;;;;5063839;28;20029;-75
2023/06/23 09:05:28;;;;;;;2.50;1.25;;;;;;;;;;5065458;28;20093;-82
2023/06/23 09:07:54;;;;;;;2.47;1.50;;;;;;;;;;5087720;28;20028;-73
2023/06/23 09:10:19;;;;;;;5.63;1.80;;;;;;;;;;5082818;28;20025;-74
2023/06/23 09:13:08;;;;;;;3.58;1.77;;;;;;;;;;5083683;28;20106;-73
2023/06/23 09:22:00;;;;;;;3.00;1.73;;;;;;;;;;5096576;28;20522;-71
2023/06/23 09:24:45;;;;;;;3.00;1.80;;;;;;;;;;5073850;28;20032;-88
2023/06/23 09:27:11;;;;;;;3.08;1.95;;;;;;;;;;5077688;28;20032;-70
2023/06/23 09:29:39;;;;;;;3.15;1.83;;;;;;;;;;5077663;28;20098;-69
2023/06/23 09:32:05;;;;;;;3.95;1.90;;;;;;;;;;5076478;28;20033;-70
2023/06/23 09:34:34;;;;;;;3.15;1.63;;;;;;;;;;5077554;28;20024;-70
2023/06/23 09:37:13;;;;;;;2.95;1.55;;;;;;;;;;5077511;28;20209;-69
2023/06/23 09:39:40;;;;;;;3.33;1.70;;;;;;;;;;5077434;28;20033;-68
2023/06/23 09:42:12;;;;;;;3.10;1.88;;;;;;;;;;5077397;28;20279;-70
2023/06/23 09:44:39;;;;;;;3.38;1.50;;;;;;;;;;5077473;28;20212;-71
2023/06/23 09:47:05;;;;;;;3.03;1.75;;;;;;;;;;5077329;28;20024;-69
2023/06/23 09:49:42;;;;;;;3.92;1.58;;;;;;;;;;5077277;28;20027;-78
2023/06/23 09:52:08;;;;;;;3.28;1.80;;;;;;;;;;5077295;28;20043;-72
2023/06/23 09:54:41;;;;;;;3.10;1.40;;;;;;;;;;5077219;28;20066;-71
2023/06/23 09:57:09;;;;;;;2.75;1.65;;;;;;;;;;5072843;28;20059;-73
2023/06/23 10:31:18;;;;;;;2.50;1.55;;;;;;;;;;5098342;28;20834;-67
2023/06/23 10:33:45;;;;;;;5.60;1.90;;;;;;;;;;5098235;28;20383;-76
2023/06/23 10:36:14;;;;;;;3.15;1.70;;;;;;;;;;5094216;28;20032;-75
2023/06/23 10:38:43;;;;;;;4.05;1.52;;;;;;;;;;5096804;28;20036;-67
2023/06/23 10:41:10;;;;;;;2.97;1.98;;;;;;;;;;5097972;28;20020;-90
2023/06/23 10:43:39;;;;;;;2.40;1.63;;;;;;;;;;5098194;28;20029;-86
2023/06/23 10:46:05;;;;;;;2.63;1.77;;;;;;;;;;5097907;28;20248;-67
2023/06/23 10:48:31;;;;;;;2.28;1.42;;;;;;;;;;5096681;28;20050;-67
2023/06/23 10:50:58;;;;;;;3.25;1.70;;;;;;;;;;5097186;28;20032;-70
2023/06/23 10:53:30;;;;;;;2.90;1.73;;;;;;;;;;5091595;28;20032;-66
2023/06/23 10:55:56;;;;;;;2.92;1.60;;;;;;;;;;5090809;28;20044;-71
2023/06/23 10:58:23;;;;;;;3.60;1.92;;;;;;;;;;5096480;28;20024;-71
2023/06/23 11:00:55;;;;;;;2.78;1.58;;;;;;;;;;5096485;28;20030;-67
2023/06/23 11:03:32;;;;;;;3.28;1.70;;;;;;;;;;5096542;28;20039;-67
2023/06/23 11:05:59;;;;;;;2.28;1.58;;;;;;;;;;5096577;28;20034;-68
2023/06/23 11:08:33;;;;;;;2.50;1.55;;;;;;;;;;5097261;28;20062;-67
2023/06/23 11:11:01;;;;;;;2.85;1.38;;;;;;;;;;5068461;28;20025;-68
2023/06/23 11:13:41;;;;;;;3.55;1.30;;;;;;;;;;5055658;28;20300;-67
2023/06/23 11:16:14;;;;;;;2.50;1.38;;;;;;;;;;5055721;28;20025;-69
2023/06/23 11:19:01;;;;;;;2.63;1.60;;;;;;;;;;5056054;28;20285;-69
2023/06/23 11:21:27;;;;;;;1.77;1.17;;;;;;;;;;5071660;28;20063;-70
2023/06/23 11:24:17;;;;;;;3.28;1.48;;;;;;;;;;5056880;28;20256;-70
2023/06/23 11:26:48;;;;;;;3.58;1.42;;;;;;;;;;5056698;28;20033;-70
2023/06/23 11:29:16;;;;;;;3.05;1.77;;;;;;;;;;5056694;28;20104;-69
2023/06/23 11:32:27;;;;;;;2.45;1.55;;;;;;;;;;5057049;28;20029;-70
2023/06/23 11:34:57;;;;;;;1.83;1.35;;;;;;;;;;5056656;28;20228;-69
2023/06/23 11:37:31;;;;;;;1.80;1.30;;;;;;;;;;5056614;28;20068;-69
2023/06/23 11:39:56;;;;;;;2.17;1.38;;;;;;;;;;5056981;28;20380;-70
2023/06/23 11:42:22;;;;;;;2.63;1.40;;;;;;;;;;5044954;28;20053;-69
2023/06/23 11:44:51;;;;;;;2.70;1.33;;;;;;;;;;5043099;28;20071;-69
2023/06/23 11:47:23;;;;;;;2.13;1.30;;;;;;;;;;5043111;28;20029;-72
2023/06/23 11:49:49;;;;;;;2.47;1.40;;;;;;;;;;5043572;28;20367;-71
2023/06/23 11:52:15;;;;;;;2.30;1.40;;;;;;;;;;5043075;28;20281;-69
2023/06/23 11:54:41;;;;;;;1.40;1.00;;;;;;;;;;5043258;28;20037;-71
2023/06/23 11:57:07;;;;;;;1.95;1.20;;;;;;;;;;5043261;28;20042;-68
2023/06/23 11:59:36;;;;;;;3.75;1.45;;;;;;;;;;5043186;28;20038;-68
2023/06/23 12:02:03;;;;;;;2.47;1.48;;;;;;;;;;5043125;28;20131;-68
2023/06/23 12:04:31;;;;;;;2.63;1.20;;;;;;;;;;5043049;28;20103;-68
2023/06/23 12:06:59;;;;;;;3.08;1.60;;;;;;;;;;5042800;28;20025;-68
2023/06/23 12:09:25;;;;;;;3.30;1.25;;;;;;;;;;5041462;28;20048;-76
2023/06/23 12:11:52;;;;;;;1.20;0.90;;;;;;;;;;5042759;28;20028;-69
2023/06/23 12:14:17;;;;;;;1.98;1.10;;;;;;;;;;5042465;28;20037;-68
2023/06/23 12:16:43;;;;;;;3.08;1.20;;;;;;;;;;5042748;28;20029;-67
2023/06/23 12:19:08;;;;;;;1.95;1.10;;;;;;;;;;5042491;28;20036;-69
2023/06/23 12:21:39;;;;;;;2.25;1.23;;;;;;;;;;5042438;28;20029;-68
2023/06/23 12:24:09;;;;;;;1.85;1.30;;;;;;;;;;5042151;28;20101;-67
2023/06/23 12:26:34;;;;;;;2.23;1.20;;;;;;;;;;5042365;28;20488;-70
2023/06/23 12:29:08;;;;;;;1.65;1.10;;;;;;;;;;5042059;28;20320;-68
2023/06/23 12:31:33;;;;;;;1.83;1.13;;;;;;;;;;5041784;28;20034;-67
2023/06/23 12:34:01;;;;;;;2.33;1.20;;;;;;;;;;5042206;28;20033;-68
2023/06/23 12:36:26;;;;;;;1.90;1.30;;;;;;;;;;5045847;28;20021;-69
2023/06/23 12:38:55;;;;;;;1.95;1.23;;;;;;;;;;5053388;28;20130;-69
2023/06/23 12:41:26;;;;;;;2.58;1.45;;;;;;;;;;5052127;28;20068;-69
2023/06/23 12:44:00;;;;;;;1.77;1.20;;;;;;;;;;5072010;28;20032;-70
2023/06/23 12:46:28;;;;;;;2.13;1.23;;;;;;;;;;5062268;28;20036;-69
2023/06/23 12:48:56;;;;;;;1.67;1.10;;;;;;;;;;5081650;28;20411;-69
2023/06/23 12:51:35;;;;;;;1.83;1.15;;;;;;;;;;5055367;28;20198;-68
2023/06/23 12:54:01;;;;;;;2.42;1.27;;;;;;;;;;5040012;28;20257;-68
2023/06/23 12:56:28;;;;;;;1.35;1.05;;;;;;;;;;5042207;28;20391;-68
2023/06/23 12:58:53;;;;;;;2.08;1.35;;;;;;;;;;5042052;28;20061;-70
2023/06/23 13:01:18;;;;;;;1.90;1.02;;;;;;;;;;5041024;28;20029;-69
2023/06/23 13:03:46;;;;;;;1.38;1.00;;;;;;;;;;5041656;28;20033;-73
2023/06/23 13:06:11;;;;;;;2.30;1.20;;;;;;;;;;5041017;28;20052;-68
2023/06/23 13:08:36;;;;;;;1.85;1.10;;;;;;;;;;5030526;28;20030;-69
2023/06/23 13:11:02;;;;;;;1.83;1.20;;;;;;;;;;5029652;28;20073;-70
2023/06/23 13:13:27;;;;;;;1.42;0.88;;;;;;;;;;5030614;28;20060;-68
2023/06/23 13:15:53;;;;;;;2.20;1.25;;;;;;;;;;5037441;28;20045;-72
2023/06/23 13:18:18;;;;;;;1.08;0.90;;;;;;;;;;5050388;28;20040;-69
2023/06/23 13:20:44;;;;;;;1.90;1.20;;;;;;;;;;5050106;28;20338;-70
2023/06/23 13:23:09;;;;;;;2.10;1.30;;;;;;;;;;5050460;28;20060;-69
2023/06/23 13:25:35;;;;;;;2.03;1.13;;;;;;;;;;5049972;28;20108;-77
2023/06/23 13:28:01;;;;;;;1.98;1.20;;;;;;;;;;5049150;28;20075;-69
2023/06/23 13:30:27;;;;;;;1.40;0.93;;;;;;;;;;5052962;28;20075;-69
2023/06/23 13:32:53;;;;;;;1.88;1.27;;;;;;;;;;5056892;28;20328;-71
2023/06/23 13:35:18;;;;;;;2.03;0.98;;;;;;;;;;5054877;28;20028;-73
2023/06/23 13:37:43;;;;;;;1.90;1.20;;;;;;;;;;5055927;28;20271;-70
2023/06/23 13:40:10;;;;;;;1.75;1.23;;;;;;;;;;5053998;28;20028;-69
2023/06/23 13:42:39;;;;;;;1.38;0.88;;;;;;;;;;5056098;28;20021;-69
2023/06/23 13:45:07;;;;;;;1.52;1.10;;;;;;;;;;5054810;28;20056;-71
2023/06/23 13:47:32;;;;;;;1.88;1.20;;;;;;;;;;5055333;28;20040;-71
2023/06/23 13:49:58;;;;;;;2.00;1.30;;;;;;;;;;5057756;28;20032;-69
2023/06/23 13:52:24;;;;;;;1.65;1.10;;;;;;;;;;5051093;28;20025;-71
2023/06/23 13:54:49;;;;;;;3.22;1.38;;;;;;;;;;5049028;28;20033;-71
2023/06/23 13:57:15;;;;;;;1.88;1.25;;;;;;;;;;5052357;28;20040;-72
2023/06/23 13:59:43;;;;;;;1.70;1.20;;;;;;;;;;5053693;28;20037;-73
2023/06/23 14:02:09;;;;;;;2.58;1.17;;;;;;;;;;5055421;28;20336;-71
2023/06/23 14:04:35;;;;;;;1.65;1.00;;;;;;;;;;5049816;28;20028;-71
2023/06/23 14:07:00;;;;;;;4.93;1.20;;;;;;;;;;5049295;28;20029;-70
2023/06/23 14:09:26;;;;;;;1.88;1.20;;;;;;;;;;5049208;28;20032;-70
2023/06/23 14:11:51;;;;;;;3.15;1.23;;;;;;;;;;5049162;28;20025;-69
2023/06/23 14:14:17;;;;;;;1.80;1.17;;;;;;;;;;5048828;28;20021;-69
2023/06/23 14:16:43;;;;;;;1.65;1.00;;;;;;;;;;5048875;28;20615;-68
2023/06/23 14:19:09;;;;;;;1.60;1.02;;;;;;;;;;5049224;28;20108;-70
2023/06/23 14:21:35;;;;;;;1.23;1.00;;;;;;;;;;5049138;28;20028;-69
2023/06/23 14:24:01;;;;;;;1.70;1.15;;;;;;;;;;5049301;28;20037;-70
2023/06/23 14:26:26;;;;;;;2.72;1.27;;;;;;;;;;5049024;28;20066;-70
2023/06/23 14:28:52;;;;;;;1.70;1.10;;;;;;;;;;5048659;28;20074;-70
2023/06/23 14:31:17;;;;;;;3.90;1.10;;;;;;;;;;5048580;28;20098;-71
2023/06/23 14:33:44;;;;;;;2.30;1.40;;;;;;;;;;5051766;28;20024;-69
2023/06/23 14:36:09;;;;;;;4.18;1.23;;;;;;;;;;5067094;28;20047;-70
2023/06/23 14:38:35;;;;;;;1.95;0.93;;;;;;;;;;5068441;28;20028;-70
2023/06/23 14:41:00;;;;;;;1.73;1.13;;;;;;;;;;5071905;28;20036;-69
2023/06/23 14:43:26;;;;;;;1.73;1.20;;;;;;;;;;5069653;28;20028;-72
2023/06/23 14:45:52;;;;;;;1.67;1.17;;;;;;;;;;5076115;28;20142;-70
2023/06/23 14:48:19;;;;;;;2.90;1.30;;;;;;;;;;5075684;28;20066;-71
2023/06/23 14:50:44;;;;;;;2.25;1.42;;;;;;;;;;5068989;28;20463;-70
2023/06/23 14:53:10;;;;;;;1.73;1.10;;;;;;;;;;5068487;28;20052;-70
2023/06/23 14:55:36;;;;;;;2.55;1.40;;;;;;;;;;5069726;28;20017;-70
2023/06/23 14:58:05;;;;;;;1.60;1.10;;;;;;;;;;5069476;28;20067;-70
2023/06/23 15:00:32;;;;;;;1.38;1.02;;;;;;;;;;5070859;28;20033;-70
2023/06/23 15:02:57;;;;;;;1.88;1.25;;;;;;;;;;5069881;28;20062;-69
2023/06/23 15:05:23;;;;;;;2.03;1.30;;;;;;;;;;5071832;28;20027;-72
2023/06/23 15:07:49;;;;;;;1.40;1.10;;;;;;;;;;5069355;28;20028;-72
2023/06/23 15:10:15;;;;;;;1.23;0.93;;;;;;;;;;5071860;28;20039;-69
2023/06/23 15:12:40;;;;;;;1.40;1.08;;;;;;;;;;5080128;28;20098;-70
2023/06/23 15:15:07;;;;;;;1.92;1.00;;;;;;;;;;5080070;28;20024;-70
2023/06/23 15:17:32;;;;;;;1.27;1.00;;;;;;;;;;5082353;28;20097;-69
2023/06/23 15:19:58;;;;;;;1.90;1.10;;;;;;;;;;5083376;28;20478;-71
2023/06/23 15:22:23;;;;;;;2.30;1.27;;;;;;;;;;5083592;28;20105;-70
2023/06/23 15:24:49;;;;;;;7.05;1.50;;;;;;;;;;5083242;28;20028;-70
2023/06/23 15:27:14;;;;;;;2.58;1.40;;;;;;;;;;5082409;28;20033;-71